DLH8DP LIMC-EDDK
Flight info
| Callsign | DLH8DP |
|---|---|
| Flight time | 1h 6m |
| Altitude | 34000 |
| Route | AOSTA DCT ORSUD DCT MOLUS DCT GILIR DCT PENDU DCT IXILU DCT GIVOR DCT SORAL DCT IBERA N853 DIK/N0447F330 N853 ARCKY T853 IBESA T860 ERUKI ERUKI1F |
| Aircraft | A320/M-SDE3FGHIRWY/LB1 |
Departure
| Time | 2026-04-30 19:08 |
|---|---|
| Airport | Milan Malpensa International Airport (LIMC) |
Arrival
| Time | 2026-04-30 20:14 |
|---|---|
| Airport | Cologne Bonn Airport (EDDK) |
| Time | Latitude | Longitude | Altitude | Speed | Heading |
|---|---|---|---|---|---|
| 2026-04-30 18:50 | 45.62384 | 8.71718 | 741 ft | 0 kts | 349° |
| 2026-04-30 18:59 | 45.62341 | 8.71731 | 741 ft | 2 kts | 351° |
| 2026-04-30 19:00 | 45.62312 | 8.71733 | 741 ft | 4 kts | 78° |
| 2026-04-30 19:00 | 45.62318 | 8.71771 | 741 ft | 4 kts | 78° |
| 2026-04-30 19:00 | 45.62325 | 8.71821 | 741 ft | 0 kts | 79° |
| 2026-04-30 19:02 | 45.62235 | 8.71944 | 741 ft | 21 kts | 167° |
| 2026-04-30 19:03 | 45.61861 | 8.72048 | 741 ft | 29 kts | 170° |
| 2026-04-30 19:03 | 45.61459 | 8.72158 | 741 ft | 25 kts | 169° |
| 2026-04-30 19:04 | 45.61164 | 8.72241 | 741 ft | 18 kts | 169° |
| 2026-04-30 19:04 | 45.61054 | 8.72474 | 741 ft | 19 kts | 79° |
| 2026-04-30 19:05 | 45.61103 | 8.72862 | 743 ft | 21 kts | 79° |
| 2026-04-30 19:05 | 45.61277 | 8.73190 | 741 ft | 23 kts | 34° |
| 2026-04-30 19:06 | 45.61572 | 8.73225 | 741 ft | 10 kts | 5° |
| 2026-04-30 19:06 | 45.61615 | 8.73275 | 740 ft | 9 kts | 67° |
| 2026-04-30 19:06 | 45.61584 | 8.73548 | 741 ft | 20 kts | 109° |
| 2026-04-30 19:07 | 45.61801 | 8.73682 | 740 ft | 33 kts | 348° |
| 2026-04-30 19:07 | 45.62266 | 8.73553 | 741 ft | 100 kts | 349° |
| 2026-04-30 19:08 | 45.64247 | 8.73005 | 1237 ft | 154 kts | 349° |
| 2026-04-30 19:08 | 45.66076 | 8.74160 | 2364 ft | 151 kts | 49° |
| 2026-04-30 19:08 | 45.66842 | 8.75334 | 2562 ft | 173 kts | 47° |
| 2026-04-30 19:09 | 45.68758 | 8.78162 | 3232 ft | 210 kts | 46° |
| 2026-04-30 19:09 | 45.69800 | 8.79638 | 3836 ft | 214 kts | 42° |
| 2026-04-30 19:09 | 45.71163 | 8.80659 | 4175 ft | 234 kts | 11° |
| 2026-04-30 19:10 | 45.74151 | 8.78690 | 5072 ft | 268 kts | 297° |
| 2026-04-30 19:10 | 45.74813 | 8.73376 | 6737 ft | 275 kts | 273° |
| 2026-04-30 19:11 | 45.74896 | 8.70656 | 7506 ft | 279 kts | 272° |
| 2026-04-30 19:11 | 45.75032 | 8.65000 | 9130 ft | 288 kts | 274° |
| 2026-04-30 19:11 | 45.75121 | 8.62125 | 9942 ft | 292 kts | 274° |
| 2026-04-30 19:12 | 45.75225 | 8.59200 | 10629 ft | 299 kts | 275° |
| 2026-04-30 19:12 | 45.75347 | 8.56107 | 10861 ft | 322 kts | 275° |
| 2026-04-30 19:12 | 45.75484 | 8.52790 | 11056 ft | 344 kts | 275° |
| 2026-04-30 19:13 | 45.75773 | 8.45756 | 12222 ft | 359 kts | 275° |
| 2026-04-30 19:13 | 45.76053 | 8.38544 | 13602 ft | 367 kts | 275° |
| 2026-04-30 19:13 | 45.76193 | 8.34873 | 14262 ft | 370 kts | 275° |
| 2026-04-30 19:14 | 45.76334 | 8.31170 | 14855 ft | 374 kts | 275° |
| 2026-04-30 19:14 | 45.76478 | 8.27428 | 15449 ft | 377 kts | 276° |
| 2026-04-30 19:14 | 45.76624 | 8.23666 | 16030 ft | 381 kts | 275° |
| 2026-04-30 19:14 | 45.76771 | 8.19855 | 16639 ft | 384 kts | 275° |
| 2026-04-30 19:15 | 45.76915 | 8.16013 | 17194 ft | 388 kts | 275° |
| 2026-04-30 19:15 | 45.77195 | 8.08286 | 18388 ft | 394 kts | 275° |
| 2026-04-30 19:15 | 45.77338 | 8.04291 | 18920 ft | 397 kts | 274° |
| 2026-04-30 19:16 | 45.77476 | 8.00370 | 19395 ft | 401 kts | 274° |
| 2026-04-30 19:16 | 45.77617 | 7.96366 | 19905 ft | 404 kts | 275° |
| 2026-04-30 19:16 | 45.77907 | 7.88254 | 20924 ft | 411 kts | 275° |
| 2026-04-30 19:17 | 45.78051 | 7.84143 | 21391 ft | 415 kts | 274° |
| 2026-04-30 19:17 | 45.78336 | 7.75807 | 22326 ft | 422 kts | 274° |
| 2026-04-30 19:17 | 45.78473 | 7.71597 | 22762 ft | 425 kts | 274° |
| 2026-04-30 19:18 | 45.78703 | 7.64520 | 23493 ft | 430 kts | 274° |
| 2026-04-30 19:18 | 45.78888 | 7.58758 | 24021 ft | 434 kts | 274° |
| 2026-04-30 19:18 | 45.79024 | 7.54424 | 24393 ft | 436 kts | 274° |
| 2026-04-30 19:19 | 45.79158 | 7.50069 | 24759 ft | 438 kts | 274° |
| 2026-04-30 19:19 | 45.79297 | 7.45713 | 25139 ft | 440 kts | 276° |
| 2026-04-30 19:19 | 45.80776 | 7.37291 | 25853 ft | 437 kts | 297° |
| 2026-04-30 19:20 | 45.82296 | 7.33532 | 26204 ft | 435 kts | 308° |
| 2026-04-30 19:20 | 45.84258 | 7.30241 | 26551 ft | 434 kts | 318° |
| 2026-04-30 19:20 | 45.89065 | 7.25008 | 27219 ft | 435 kts | 326° |
| 2026-04-30 19:21 | 45.91542 | 7.22489 | 27524 ft | 437 kts | 326° |
| 2026-04-30 19:21 | 45.96528 | 7.17414 | 28149 ft | 440 kts | 326° |
| 2026-04-30 19:22 | 46.01503 | 7.12320 | 28643 ft | 445 kts | 326° |
| 2026-04-30 19:22 | 46.09129 | 7.04486 | 29364 ft | 452 kts | 326° |
| 2026-04-30 19:23 | 46.16835 | 6.96556 | 30149 ft | 455 kts | 326° |
| 2026-04-30 19:24 | 46.21982 | 6.91243 | 30753 ft | 453 kts | 326° |
| 2026-04-30 19:24 | 46.24540 | 6.88597 | 31047 ft | 452 kts | 326° |
| 2026-04-30 19:24 | 46.29644 | 6.83309 | 31605 ft | 450 kts | 326° |
| 2026-04-30 19:25 | 46.37286 | 6.75372 | 32345 ft | 451 kts | 326° |
| 2026-04-30 19:26 | 46.42378 | 6.70056 | 32919 ft | 450 kts | 326° |
| 2026-04-30 19:26 | 46.47756 | 6.65572 | 33494 ft | 445 kts | 336° |
| 2026-04-30 19:26 | 46.50550 | 6.63616 | 33775 ft | 444 kts | 336° |
| 2026-04-30 19:27 | 46.56109 | 6.59711 | 34196 ft | 443 kts | 336° |
| 2026-04-30 19:28 | 46.64391 | 6.53873 | 34213 ft | 443 kts | 336° |
| 2026-04-30 19:29 | 46.75512 | 6.45980 | 34215 ft | 447 kts | 336° |
| 2026-04-30 19:30 | 46.86706 | 6.38002 | 34210 ft | 447 kts | 336° |
| 2026-04-30 19:31 | 46.97888 | 6.29998 | 34203 ft | 447 kts | 336° |
| 2026-04-30 19:31 | 47.06263 | 6.23981 | 34185 ft | 447 kts | 336° |
| 2026-04-30 19:32 | 47.11852 | 6.19964 | 34184 ft | 447 kts | 336° |
| 2026-04-30 19:32 | 47.17440 | 6.15938 | 34174 ft | 448 kts | 336° |
| 2026-04-30 19:33 | 47.23040 | 6.11878 | 34150 ft | 449 kts | 336° |
| 2026-04-30 19:33 | 47.28649 | 6.07812 | 34153 ft | 450 kts | 336° |
| 2026-04-30 19:34 | 47.34391 | 6.04318 | 34157 ft | 446 kts | 348° |
| 2026-04-30 19:34 | 47.40511 | 6.03377 | 34169 ft | 440 kts | 4° |
| 2026-04-30 19:35 | 47.43575 | 6.03460 | 34167 ft | 441 kts | 4° |
| 2026-04-30 19:35 | 47.49717 | 6.03605 | 34179 ft | 441 kts | 4° |
| 2026-04-30 19:36 | 47.55853 | 6.03737 | 34187 ft | 441 kts | 4° |
| 2026-04-30 19:36 | 47.65024 | 6.03935 | 34194 ft | 441 kts | 4° |
| 2026-04-30 19:37 | 47.71162 | 6.04068 | 34197 ft | 441 kts | 4° |
| 2026-04-30 19:37 | 47.77175 | 6.05304 | 34202 ft | 435 kts | 17° |
| 2026-04-30 19:38 | 47.83049 | 6.07532 | 34201 ft | 435 kts | 17° |
| 2026-04-30 19:38 | 47.88931 | 6.09744 | 34195 ft | 436 kts | 17° |
| 2026-04-30 19:39 | 47.93812 | 6.11581 | 34202 ft | 436 kts | 17° |
| 2026-04-30 19:39 | 47.99694 | 6.13802 | 34210 ft | 435 kts | 17° |
| 2026-04-30 19:40 | 48.06526 | 6.16381 | 34212 ft | 435 kts | 17° |
| 2026-04-30 19:40 | 48.11408 | 6.18230 | 34212 ft | 435 kts | 17° |
| 2026-04-30 19:41 | 48.17272 | 6.20461 | 34233 ft | 435 kts | 17° |
| 2026-04-30 19:41 | 48.23141 | 6.22705 | 34234 ft | 435 kts | 17° |
| 2026-04-30 19:42 | 48.29011 | 6.24946 | 34222 ft | 435 kts | 17° |
| 2026-04-30 19:42 | 48.34880 | 6.27181 | 34225 ft | 435 kts | 17° |
| 2026-04-30 19:43 | 48.40751 | 6.29442 | 34228 ft | 435 kts | 17° |
| 2026-04-30 19:44 | 48.49569 | 6.32837 | 34232 ft | 435 kts | 17° |
| 2026-04-30 19:44 | 48.55434 | 6.35103 | 34231 ft | 436 kts | 17° |
| 2026-04-30 19:45 | 48.61307 | 6.37380 | 34229 ft | 435 kts | 17° |
| 2026-04-30 19:45 | 48.67242 | 6.39288 | 34230 ft | 439 kts | 7° |
| 2026-04-30 19:46 | 48.73347 | 6.39910 | 34231 ft | 440 kts | 7° |
| 2026-04-30 19:46 | 48.79457 | 6.40528 | 34235 ft | 440 kts | 7° |
| 2026-04-30 19:47 | 48.85521 | 6.41136 | 34255 ft | 440 kts | 7° |
| 2026-04-30 19:47 | 48.91677 | 6.41754 | 34254 ft | 440 kts | 7° |
| 2026-04-30 19:48 | 48.97744 | 6.42367 | 34257 ft | 440 kts | 7° |
| 2026-04-30 19:48 | 49.03859 | 6.42990 | 34258 ft | 440 kts | 7° |
| 2026-04-30 19:49 | 49.09984 | 6.43498 | 34259 ft | 443 kts | 1° |
| 2026-04-30 19:49 | 49.16088 | 6.41850 | 34257 ft | 449 kts | 348° |
| 2026-04-30 19:49 | 49.19109 | 6.40593 | 34263 ft | 449 kts | 348° |
| 2026-04-30 19:50 | 49.25136 | 6.38115 | 34259 ft | 449 kts | 348° |
| 2026-04-30 19:50 | 49.31167 | 6.35647 | 34268 ft | 448 kts | 348° |
| 2026-04-30 19:51 | 49.37196 | 6.33159 | 34272 ft | 449 kts | 348° |
| 2026-04-30 19:51 | 49.43198 | 6.30677 | 34061 ft | 450 kts | 348° |
| 2026-04-30 19:52 | 49.46224 | 6.29428 | 33785 ft | 450 kts | 348° |
| 2026-04-30 19:52 | 49.49245 | 6.28179 | 33518 ft | 451 kts | 348° |
| 2026-04-30 19:52 | 49.52284 | 6.26923 | 33241 ft | 453 kts | 347° |
| 2026-04-30 19:52 | 49.55342 | 6.25661 | 32972 ft | 455 kts | 347° |
| 2026-04-30 19:53 | 49.58402 | 6.24402 | 32697 ft | 456 kts | 348° |
| 2026-04-30 19:53 | 49.61475 | 6.23147 | 32435 ft | 457 kts | 348° |
| 2026-04-30 19:53 | 49.64549 | 6.21892 | 32172 ft | 457 kts | 348° |
| 2026-04-30 19:53 | 49.67624 | 6.20628 | 31910 ft | 458 kts | 348° |
| 2026-04-30 19:54 | 49.70711 | 6.19355 | 31666 ft | 459 kts | 347° |
| 2026-04-30 19:54 | 49.73790 | 6.18079 | 31413 ft | 459 kts | 347° |
| 2026-04-30 19:54 | 49.76849 | 6.16810 | 31161 ft | 460 kts | 347° |
| 2026-04-30 19:54 | 49.79984 | 6.15508 | 30912 ft | 461 kts | 348° |
| 2026-04-30 19:55 | 49.83045 | 6.14241 | 30664 ft | 462 kts | 348° |
| 2026-04-30 19:55 | 49.86187 | 6.13243 | 30416 ft | 460 kts | 356° |
| 2026-04-30 19:55 | 49.89365 | 6.12983 | 30141 ft | 457 kts | 3° |
| 2026-04-30 19:55 | 49.92541 | 6.13024 | 29856 ft | 455 kts | 3° |
| 2026-04-30 19:56 | 49.95701 | 6.13047 | 29411 ft | 451 kts | 3° |
| 2026-04-30 19:56 | 49.98823 | 6.13059 | 28726 ft | 446 kts | 3° |
| 2026-04-30 19:56 | 50.01908 | 6.13068 | 28078 ft | 441 kts | 3° |
| 2026-04-30 19:56 | 50.04972 | 6.13080 | 27432 ft | 437 kts | 3° |
| 2026-04-30 19:57 | 50.07994 | 6.13094 | 26801 ft | 433 kts | 3° |
| 2026-04-30 19:57 | 50.10998 | 6.13109 | 26179 ft | 429 kts | 3° |
| 2026-04-30 19:57 | 50.13973 | 6.13128 | 25563 ft | 426 kts | 3° |
| 2026-04-30 19:57 | 50.16936 | 6.13147 | 24950 ft | 424 kts | 3° |
| 2026-04-30 19:58 | 50.19873 | 6.13164 | 24350 ft | 421 kts | 3° |
| 2026-04-30 19:58 | 50.22795 | 6.13182 | 23741 ft | 419 kts | 3° |
| 2026-04-30 19:58 | 50.25692 | 6.13208 | 23128 ft | 414 kts | 5° |
| 2026-04-30 19:58 | 50.28523 | 6.13741 | 22595 ft | 406 kts | 15° |
| 2026-04-30 19:59 | 50.31189 | 6.15035 | 22069 ft | 398 kts | 25° |
| 2026-04-30 19:59 | 50.33616 | 6.17012 | 21582 ft | 390 kts | 35° |
| 2026-04-30 19:59 | 50.38109 | 6.21639 | 20617 ft | 383 kts | 36° |
| 2026-04-30 20:00 | 50.40325 | 6.23914 | 20162 ft | 380 kts | 36° |
| 2026-04-30 20:00 | 50.42535 | 6.26179 | 19691 ft | 377 kts | 36° |
| 2026-04-30 20:00 | 50.44718 | 6.28425 | 19228 ft | 374 kts | 36° |
| 2026-04-30 20:00 | 50.46869 | 6.30697 | 18743 ft | 371 kts | 40° |
| 2026-04-30 20:01 | 50.50229 | 6.36625 | 17720 ft | 360 kts | 62° |
| 2026-04-30 20:01 | 50.51295 | 6.40139 | 17220 ft | 356 kts | 69° |
| 2026-04-30 20:01 | 50.52261 | 6.43710 | 16741 ft | 354 kts | 68° |
| 2026-04-30 20:02 | 50.54190 | 6.50795 | 15712 ft | 351 kts | 68° |
| 2026-04-30 20:02 | 50.55151 | 6.54304 | 15203 ft | 350 kts | 68° |
| 2026-04-30 20:03 | 50.57055 | 6.61292 | 14155 ft | 349 kts | 68° |
| 2026-04-30 20:03 | 50.58007 | 6.64801 | 13595 ft | 348 kts | 68° |
| 2026-04-30 20:03 | 50.58970 | 6.68289 | 13057 ft | 347 kts | 65° |
| 2026-04-30 20:03 | 50.60326 | 6.71409 | 12534 ft | 348 kts | 49° |
| 2026-04-30 20:04 | 50.62232 | 6.73779 | 11981 ft | 352 kts | 32° |
| 2026-04-30 20:04 | 50.64531 | 6.75166 | 11359 ft | 357 kts | 14° |
| 2026-04-30 20:04 | 50.67017 | 6.75478 | 10883 ft | 357 kts | 4° |
| 2026-04-30 20:05 | 50.71789 | 6.75612 | 10629 ft | 329 kts | 4° |
| 2026-04-30 20:05 | 50.74031 | 6.75683 | 10508 ft | 317 kts | 4° |
| 2026-04-30 20:05 | 50.78300 | 6.75786 | 9796 ft | 297 kts | 4° |
| 2026-04-30 20:06 | 50.80355 | 6.75780 | 9163 ft | 295 kts | 358° |
| 2026-04-30 20:06 | 50.82385 | 6.75345 | 8510 ft | 294 kts | 354° |
| 2026-04-30 20:06 | 50.84390 | 6.74801 | 7860 ft | 291 kts | 353° |
| 2026-04-30 20:06 | 50.86382 | 6.74255 | 7212 ft | 289 kts | 356° |
| 2026-04-30 20:07 | 50.88329 | 6.74435 | 6599 ft | 275 kts | 22° |
| 2026-04-30 20:07 | 50.90051 | 6.75647 | 5894 ft | 271 kts | 32° |
| 2026-04-30 20:07 | 50.93387 | 6.78446 | 4519 ft | 269 kts | 33° |
| 2026-04-30 20:08 | 50.95036 | 6.79806 | 3901 ft | 265 kts | 33° |
| 2026-04-30 20:08 | 50.96616 | 6.81070 | 3748 ft | 244 kts | 33° |
| 2026-04-30 20:08 | 50.98066 | 6.82184 | 3578 ft | 226 kts | 33° |
| 2026-04-30 20:08 | 50.99318 | 6.83422 | 3440 ft | 197 kts | 57° |
| 2026-04-30 20:09 | 50.99912 | 6.85243 | 3260 ft | 178 kts | 79° |
| 2026-04-30 20:09 | 51.00230 | 6.87103 | 3079 ft | 176 kts | 83° |
| 2026-04-30 20:09 | 51.00107 | 6.90725 | 3013 ft | 168 kts | 126° |
| 2026-04-30 20:10 | 50.98641 | 6.93645 | 3008 ft | 170 kts | 121° |
| 2026-04-30 20:10 | 50.98074 | 6.95293 | 3007 ft | 170 kts | 119° |
| 2026-04-30 20:10 | 50.97547 | 6.96907 | 3036 ft | 157 kts | 118° |
| 2026-04-30 20:11 | 50.96488 | 6.99785 | 2566 ft | 151 kts | 128° |
| 2026-04-30 20:11 | 50.95813 | 7.01071 | 2318 ft | 149 kts | 128° |
| 2026-04-30 20:11 | 50.95231 | 7.02368 | 2178 ft | 143 kts | 129° |
| 2026-04-30 20:12 | 50.93709 | 7.04310 | 1617 ft | 140 kts | 143° |
| 2026-04-30 20:12 | 50.92991 | 7.05317 | 1286 ft | 137 kts | 130° |
| 2026-04-30 20:12 | 50.92370 | 7.06468 | 972 ft | 136 kts | 127° |
| 2026-04-30 20:13 | 50.91745 | 7.07557 | 907 ft | 134 kts | 134° |
| 2026-04-30 20:13 | 50.91045 | 7.08526 | 945 ft | 132 kts | 134° |
| 2026-04-30 20:13 | 50.90371 | 7.09518 | 841 ft | 132 kts | 132° |
| 2026-04-30 20:13 | 50.89694 | 7.10509 | 691 ft | 134 kts | 133° |
| 2026-04-30 20:14 | 50.89010 | 7.11504 | 533 ft | 133 kts | 134° |
| 2026-04-30 20:14 | 50.88326 | 7.12501 | 353 ft | 134 kts | 135° |
| 2026-04-30 20:14 | 50.87635 | 7.13477 | 240 ft | 126 kts | 128° |
| 2026-04-30 20:14 | 50.87190 | 7.14192 | 248 ft | 46 kts | 139° |
| 2026-04-30 20:15 | 50.86972 | 7.14477 | 257 ft | 36 kts | 141° |
| 2026-04-30 20:15 | 50.86878 | 7.14453 | 260 ft | 15 kts | 266° |
| 2026-04-30 20:15 | 50.86891 | 7.14291 | 257 ft | 15 kts | 279° |
| 2026-04-30 20:15 | 50.86909 | 7.14121 | 255 ft | 15 kts | 279° |
| 2026-04-30 20:16 | 50.86930 | 7.13947 | 250 ft | 17 kts | 288° |
| 2026-04-30 20:16 | 50.87015 | 7.13792 | 243 ft | 21 kts | 316° |
| 2026-04-30 20:16 | 50.87128 | 7.13627 | 239 ft | 24 kts | 317° |
| 2026-04-30 20:16 | 50.87263 | 7.13433 | 234 ft | 28 kts | 317° |
| 2026-04-30 20:17 | 50.87414 | 7.13211 | 233 ft | 30 kts | 317° |
| 2026-04-30 20:17 | 50.87572 | 7.12982 | 232 ft | 31 kts | 317° |
| 2026-04-30 20:17 | 50.87727 | 7.12761 | 233 ft | 24 kts | 317° |
| 2026-04-30 20:17 | 50.87840 | 7.12623 | 232 ft | 19 kts | 343° |
| 2026-04-30 20:18 | 50.87942 | 7.12575 | 232 ft | 12 kts | 323° |
| 2026-04-30 20:18 | 50.87999 | 7.12499 | 232 ft | 10 kts | 316° |
| 2026-04-30 20:18 | 50.88021 | 7.12429 | 232 ft | 6 kts | 256° |
| 2026-04-30 20:18 | 50.87994 | 7.12384 | 233 ft | 5 kts | 216° |
| 2026-04-30 20:19 | 50.87983 | 7.12372 | 232 ft | 0 kts | 216° |